sensor_id;sensor_type;location;lat;lon;timestamp;temperature;humidity
15481;DHT22;7842;50.904;6.670;2024-01-15T00:02:08;2.00;99.90
15481;DHT22;7842;50.904;6.670;2024-01-15T00:04:41;2.00;99.90
15481;DHT22;7842;50.904;6.670;2024-01-15T00:07:07;2.00;99.90
15481;DHT22;7842;50.904;6.670;2024-01-15T00:09:33;2.00;99.90
15481;DHT22;7842;50.904;6.670;2024-01-15T00:11:59;2.00;99.90
15481;DHT22;7842;50.904;6.670;2024-01-15T00:14:26;2.00;99.90
15481;DHT22;7842;50.904;6.670;2024-01-15T00:16:51;1.90;99.90
15481;DHT22;7842;50.904;6.670;2024-01-15T00:19:26;2.00;99.90
15481;DHT22;7842;50.904;6.670;2024-01-15T00:21:53;1.90;99.90
15481;DHT22;7842;50.904;6.670;2024-01-15T00:24:18;1.80;99.90
15481;DHT22;7842;50.904;6.670;2024-01-15T00:26:44;1.80;99.90
15481;DHT22;7842;50.904;6.670;2024-01-15T00:29:10;1.70;99.90
15481;DHT22;7842;50.904;6.670;2024-01-15T00:31:36;1.70;99.90
15481;DHT22;7842;50.904;6.670;2024-01-15T00:34:02;1.70;99.90
15481;DHT22;7842;50.904;6.670;2024-01-15T00:36:27;1.70;99.90
15481;DHT22;7842;50.904;6.670;2024-01-15T00:38:54;1.70;99.90
15481;DHT22;7842;50.904;6.670;2024-01-15T00:41:20;1.60;99.90
15481;DHT22;7842;50.904;6.670;2024-01-15T00:43:46;1.60;99.90
15481;DHT22;7842;50.904;6.670;2024-01-15T00:46:11;1.60;99.90
15481;DHT22;7842;50.904;6.670;2024-01-15T00:48:37;1.70;99.90
15481;DHT22;7842;50.904;6.670;2024-01-15T00:51:04;1.80;99.90
15481;DHT22;7842;50.904;6.670;2024-01-15T00:53:30;1.80;99.90
15481;DHT22;7842;50.904;6.670;2024-01-15T00:55:56;1.80;99.90
15481;DHT22;7842;50.904;6.670;2024-01-15T00:58:22;1.80;99.90
15481;DHT22;7842;50.904;6.670;2024-01-15T01:00:48;1.90;99.90
15481;DHT22;7842;50.904;6.670;2024-01-15T01:03:14;1.80;99.90
15481;DHT22;7842;50.904;6.670;2024-01-15T01:05:40;1.80;99.90
15481;DHT22;7842;50.904;6.670;2024-01-15T01:08:05;1.90;99.90
15481;DHT22;7842;50.904;6.670;2024-01-15T01:10:31;1.70;99.90
15481;DHT22;7842;50.904;6.670;2024-01-15T01:12:57;1.70;99.90
15481;DHT22;7842;50.904;6.670;2024-01-15T01:15:23;1.70;99.90
15481;DHT22;7842;50.904;6.670;2024-01-15T01:17:50;1.60;99.90
15481;DHT22;7842;50.904;6.670;2024-01-15T01:20:15;1.60;99.90
15481;DHT22;7842;50.904;6.670;2024-01-15T01:22:41;1.60;99.90
15481;DHT22;7842;50.904;6.670;2024-01-15T01:25:07;1.60;99.90
15481;DHT22;7842;50.904;6.670;2024-01-15T01:27:33;1.60;99.90
15481;DHT22;7842;50.904;6.670;2024-01-15T01:29:59;1.60;99.90
15481;DHT22;7842;50.904;6.670;2024-01-15T01:32:24;1.70;99.90
15481;DHT22;7842;50.904;6.670;2024-01-15T01:34:50;1.80;99.90
15481;DHT22;7842;50.904;6.670;2024-01-15T01:37:16;1.80;99.90
15481;DHT22;7842;50.904;6.670;2024-01-15T01:39:42;1.80;99.90
15481;DHT22;7842;50.904;6.670;2024-01-15T01:42:08;1.80;99.90
15481;DHT22;7842;50.904;6.670;2024-01-15T01:44:34;1.90;99.90
15481;DHT22;7842;50.904;6.670;2024-01-15T01:47:01;1.80;99.90
15481;DHT22;7842;50.904;6.670;2024-01-15T01:49:27;1.80;99.90
15481;DHT22;7842;50.904;6.670;2024-01-15T01:51:56;1.90;99.90
15481;DHT22;7842;50.904;6.670;2024-01-15T01:54:22;1.90;99.90
15481;DHT22;7842;50.904;6.670;2024-01-15T01:56:49;1.80;99.90
15481;DHT22;7842;50.904;6.670;2024-01-15T01:59:16;1.90;99.90
15481;DHT22;7842;50.904;6.670;2024-01-15T02:01:43;1.80;99.90
15481;DHT22;7842;50.904;6.670;2024-01-15T02:04:13;1.80;99.90
15481;DHT22;7842;50.904;6.670;2024-01-15T02:06:39;1.80;99.90
15481;DHT22;7842;50.904;6.670;2024-01-15T02:09:05;1.80;99.90
15481;DHT22;7842;50.904;6.670;2024-01-15T02:11:31;1.80;99.90
15481;DHT22;7842;50.904;6.670;2024-01-15T02:13:57;1.80;99.90
15481;DHT22;7842;50.904;6.670;2024-01-15T02:16:22;1.70;99.90
15481;DHT22;7842;50.904;6.670;2024-01-15T02:18:48;1.80;99.90
15481;DHT22;7842;50.904;6.670;2024-01-15T02:21:14;1.80;99.90
15481;DHT22;7842;50.904;6.670;2024-01-15T02:23:40;1.90;99.90
15481;DHT22;7842;50.904;6.670;2024-01-15T02:26:05;1.90;99.90
15481;DHT22;7842;50.904;6.670;2024-01-15T02:28:32;1.90;99.90
15481;DHT22;7842;50.904;6.670;2024-01-15T02:30:58;1.90;99.90
15481;DHT22;7842;50.904;6.670;2024-01-15T02:33:24;1.90;99.90
15481;DHT22;7842;50.904;6.670;2024-01-15T02:35:50;1.90;99.90
15481;DHT22;7842;50.904;6.670;2024-01-15T02:38:16;1.90;99.90
15481;DHT22;7842;50.904;6.670;2024-01-15T02:40:43;2.10;99.90
15481;DHT22;7842;50.904;6.670;2024-01-15T02:43:09;2.20;99.90
15481;DHT22;7842;50.904;6.670;2024-01-15T02:45:34;2.10;99.90
15481;DHT22;7842;50.904;6.670;2024-01-15T02:48:00;2.00;99.90
15481;DHT22;7842;50.904;6.670;2024-01-15T02:50:26;2.00;99.90
15481;DHT22;7842;50.904;6.670;2024-01-15T02:52:52;1.90;99.90
15481;DHT22;7842;50.904;6.670;2024-01-15T02:55:17;1.90;99.90
15481;DHT22;7842;50.904;6.670;2024-01-15T02:57:44;1.90;99.90
15481;DHT22;7842;50.904;6.670;2024-01-15T03:00:10;1.90;99.90
15481;DHT22;7842;50.904;6.670;2024-01-15T03:02:38;2.00;99.90
15481;DHT22;7842;50.904;6.670;2024-01-15T03:05:12;2.00;99.90
15481;DHT22;7842;50.904;6.670;2024-01-15T03:07:38;1.90;99.90
15481;DHT22;7842;50.904;6.670;2024-01-15T03:10:05;1.90;99.90
15481;DHT22;7842;50.904;6.670;2024-01-15T03:12:31;1.90;99.90
15481;DHT22;7842;50.904;6.670;2024-01-15T03:14:57;1.90;99.90
15481;DHT22;7842;50.904;6.670;2024-01-15T03:17:23;2.00;99.90
15481;DHT22;7842;50.904;6.670;2024-01-15T03:19:48;1.90;99.90
15481;DHT22;7842;50.904;6.670;2024-01-15T03:22:15;1.90;99.90
15481;DHT22;7842;50.904;6.670;2024-01-15T03:24:41;1.90;99.90
15481;DHT22;7842;50.904;6.670;2024-01-15T03:27:07;1.70;99.90
15481;DHT22;7842;50.904;6.670;2024-01-15T03:29:33;1.90;99.90
15481;DHT22;7842;50.904;6.670;2024-01-15T03:31:58;1.90;99.90
15481;DHT22;7842;50.904;6.670;2024-01-15T03:34:24;1.90;99.90
15481;DHT22;7842;50.904;6.670;2024-01-15T03:36:50;2.00;99.90
15481;DHT22;7842;50.904;6.670;2024-01-15T03:39:15;2.00;99.90
15481;DHT22;7842;50.904;6.670;2024-01-15T03:41:41;1.90;99.90
15481;DHT22;7842;50.904;6.670;2024-01-15T03:44:07;1.90;99.90
15481;DHT22;7842;50.904;6.670;2024-01-15T03:46:32;1.90;99.90
15481;DHT22;7842;50.904;6.670;2024-01-15T03:48:58;1.90;99.90
15481;DHT22;7842;50.904;6.670;2024-01-15T03:51:24;2.00;99.90
15481;DHT22;7842;50.904;6.670;2024-01-15T03:53:50;1.90;99.90
15481;DHT22;7842;50.904;6.670;2024-01-15T03:56:16;2.00;99.90
15481;DHT22;7842;50.904;6.670;2024-01-15T03:58:41;2.10;99.90
15481;DHT22;7842;50.904;6.670;2024-01-15T04:01:10;2.00;99.90
15481;DHT22;7842;50.904;6.670;2024-01-15T04:03:36;1.90;99.90
15481;DHT22;7842;50.904;6.670;2024-01-15T04:06:03;2.10;99.90
15481;DHT22;7842;50.904;6.670;2024-01-15T04:08:29;2.00;99.90
15481;DHT22;7842;50.904;6.670;2024-01-15T04:10:55;2.00;99.90
15481;DHT22;7842;50.904;6.670;2024-01-15T04:13:21;1.90;99.90
15481;DHT22;7842;50.904;6.670;2024-01-15T04:15:47;2.00;99.90
15481;DHT22;7842;50.904;6.670;2024-01-15T04:18:13;2.10;99.90
15481;DHT22;7842;50.904;6.670;2024-01-15T04:20:38;2.00;99.90
15481;DHT22;7842;50.904;6.670;2024-01-15T04:23:04;1.90;99.90
15481;DHT22;7842;50.904;6.670;2024-01-15T04:25:30;2.10;99.90
15481;DHT22;7842;50.904;6.670;2024-01-15T04:27:56;2.10;99.90
15481;DHT22;7842;50.904;6.670;2024-01-15T04:30:22;2.10;99.90
15481;DHT22;7842;50.904;6.670;2024-01-15T04:32:48;2.10;99.90
15481;DHT22;7842;50.904;6.670;2024-01-15T04:35:13;2.00;99.90
15481;DHT22;7842;50.904;6.670;2024-01-15T04:37:42;2.00;99.90
15481;DHT22;7842;50.904;6.670;2024-01-15T04:40:08;2.10;99.90
15481;DHT22;7842;50.904;6.670;2024-01-15T04:42:35;2.10;99.90
15481;DHT22;7842;50.904;6.670;2024-01-15T04:45:00;2.10;99.90
15481;DHT22;7842;50.904;6.670;2024-01-15T04:47:26;2.20;99.90
15481;DHT22;7842;50.904;6.670;2024-01-15T04:49:52;2.20;99.90
15481;DHT22;7842;50.904;6.670;2024-01-15T04:52:17;2.10;99.90
15481;DHT22;7842;50.904;6.670;2024-01-15T04:54:43;2.10;99.90
15481;DHT22;7842;50.904;6.670;2024-01-15T04:57:09;2.10;99.90
15481;DHT22;7842;50.904;6.670;2024-01-15T04:59:34;2.10;99.90
15481;DHT22;7842;50.904;6.670;2024-01-15T05:02:00;2.10;99.90
15481;DHT22;7842;50.904;6.670;2024-01-15T05:04:26;2.10;99.90
15481;DHT22;7842;50.904;6.670;2024-01-15T05:06:51;2.10;99.90
15481;DHT22;7842;50.904;6.670;2024-01-15T05:09:17;2.10;99.90
15481;DHT22;7842;50.904;6.670;2024-01-15T05:11:43;2.10;99.90
15481;DHT22;7842;50.904;6.670;2024-01-15T05:14:09;2.10;99.90
15481;DHT22;7842;50.904;6.670;2024-01-15T05:16:35;2.20;99.90
15481;DHT22;7842;50.904;6.670;2024-01-15T05:19:00;2.10;99.90
15481;DHT22;7842;50.904;6.670;2024-01-15T05:21:26;2.10;99.90
15481;DHT22;7842;50.904;6.670;2024-01-15T05:23:52;2.10;99.90
15481;DHT22;7842;50.904;6.670;2024-01-15T05:26:17;2.20;99.90
15481;DHT22;7842;50.904;6.670;2024-01-15T05:28:43;2.20;99.90
15481;DHT22;7842;50.904;6.670;2024-01-15T05:31:09;2.20;99.90
15481;DHT22;7842;50.904;6.670;2024-01-15T05:33:36;2.20;99.90
15481;DHT22;7842;50.904;6.670;2024-01-15T05:36:02;2.20;99.90
15481;DHT22;7842;50.904;6.670;2024-01-15T05:38:28;2.30;99.90
15481;DHT22;7842;50.904;6.670;2024-01-15T05:40:53;2.30;99.90
15481;DHT22;7842;50.904;6.670;2024-01-15T05:43:19;2.20;99.90
15481;DHT22;7842;50.904;6.670;2024-01-15T05:45:45;2.10;99.90
15481;DHT22;7842;50.904;6.670;2024-01-15T05:48:11;2.10;99.90
15481;DHT22;7842;50.904;6.670;2024-01-15T05:50:38;2.10;99.90
15481;DHT22;7842;50.904;6.670;2024-01-15T05:53:04;2.10;99.90
15481;DHT22;7842;50.904;6.670;2024-01-15T05:55:29;2.10;99.90
15481;DHT22;7842;50.904;6.670;2024-01-15T05:57:55;2.10;99.90
15481;DHT22;7842;50.904;6.670;2024-01-15T06:00:21;2.10;99.90
15481;DHT22;7842;50.904;6.670;2024-01-15T06:02:47;2.10;99.90
15481;DHT22;7842;50.904;6.670;2024-01-15T06:05:13;2.10;99.90
15481;DHT22;7842;50.904;6.670;2024-01-15T06:07:38;2.10;99.90
15481;DHT22;7842;50.904;6.670;2024-01-15T06:10:04;2.10;99.90
15481;DHT22;7842;50.904;6.670;2024-01-15T06:12:30;2.10;99.90
15481;DHT22;7842;50.904;6.670;2024-01-15T06:14:57;2.10;99.90
15481;DHT22;7842;50.904;6.670;2024-01-15T06:17:23;2.00;99.90
15481;DHT22;7842;50.904;6.670;2024-01-15T06:19:49;2.00;99.90
15481;DHT22;7842;50.904;6.670;2024-01-15T06:22:14;2.00;99.90
15481;DHT22;7842;50.904;6.670;2024-01-15T06:24:40;2.00;99.90
15481;DHT22;7842;50.904;6.670;2024-01-15T06:27:06;1.90;99.90
15481;DHT22;7842;50.904;6.670;2024-01-15T06:29:32;1.90;99.90
15481;DHT22;7842;50.904;6.670;2024-01-15T06:31:57;1.90;99.90
15481;DHT22;7842;50.904;6.670;2024-01-15T06:34:23;1.90;99.90
15481;DHT22;7842;50.904;6.670;2024-01-15T06:36:49;2.00;99.90
15481;DHT22;7842;50.904;6.670;2024-01-15T06:39:15;1.90;99.90
15481;DHT22;7842;50.904;6.670;2024-01-15T06:41:40;1.90;99.90
15481;DHT22;7842;50.904;6.670;2024-01-15T06:44:10;1.90;99.90
15481;DHT22;7842;50.904;6.670;2024-01-15T06:46:36;2.00;99.90
15481;DHT22;7842;50.904;6.670;2024-01-15T06:49:02;2.00;99.90
15481;DHT22;7842;50.904;6.670;2024-01-15T06:51:29;2.10;99.90
15481;DHT22;7842;50.904;6.670;2024-01-15T06:53:54;2.00;99.90
15481;DHT22;7842;50.904;6.670;2024-01-15T06:56:20;2.00;99.90
15481;DHT22;7842;50.904;6.670;2024-01-15T06:58:46;2.00;99.90
15481;DHT22;7842;50.904;6.670;2024-01-15T07:01:12;2.00;99.90
15481;DHT22;7842;50.904;6.670;2024-01-15T07:03:38;2.00;99.90
15481;DHT22;7842;50.904;6.670;2024-01-15T07:06:04;2.00;99.90
15481;DHT22;7842;50.904;6.670;2024-01-15T07:08:29;2.00;99.90
15481;DHT22;7842;50.904;6.670;2024-01-15T07:10:55;2.10;99.90
15481;DHT22;7842;50.904;6.670;2024-01-15T07:13:21;2.10;99.90
15481;DHT22;7842;50.904;6.670;2024-01-15T07:15:47;2.00;99.90
15481;DHT22;7842;50.904;6.670;2024-01-15T07:18:12;2.00;99.90
15481;DHT22;7842;50.904;6.670;2024-01-15T07:20:38;2.00;99.90
15481;DHT22;7842;50.904;6.670;2024-01-15T07:23:04;2.10;99.90
15481;DHT22;7842;50.904;6.670;2024-01-15T07:25:29;2.10;99.90
15481;DHT22;7842;50.904;6.670;2024-01-15T07:27:55;2.10;99.90
15481;DHT22;7842;50.904;6.670;2024-01-15T07:30:21;2.20;99.90
15481;DHT22;7842;50.904;6.670;2024-01-15T07:32:50;2.20;99.90
15481;DHT22;7842;50.904;6.670;2024-01-15T07:35:16;2.20;99.90
15481;DHT22;7842;50.904;6.670;2024-01-15T07:37:42;2.30;99.90
15481;DHT22;7842;50.904;6.670;2024-01-15T07:40:08;2.20;99.90
15481;DHT22;7842;50.904;6.670;2024-01-15T07:42:34;2.30;99.90
15481;DHT22;7842;50.904;6.670;2024-01-15T07:45:00;2.30;99.90
15481;DHT22;7842;50.904;6.670;2024-01-15T07:47:26;2.40;99.90
15481;DHT22;7842;50.904;6.670;2024-01-15T07:49:53;2.40;99.90
15481;DHT22;7842;50.904;6.670;2024-01-15T07:52:19;2.30;99.90
15481;DHT22;7842;50.904;6.670;2024-01-15T07:54:44;2.40;99.90
15481;DHT22;7842;50.904;6.670;2024-01-15T07:57:10;2.40;99.90
15481;DHT22;7842;50.904;6.670;2024-01-15T07:59:36;2.50;99.90
15481;DHT22;7842;50.904;6.670;2024-01-15T08:02:02;2.50;99.90
15481;DHT22;7842;50.904;6.670;2024-01-15T08:04:28;2.50;99.90
15481;DHT22;7842;50.904;6.670;2024-01-15T08:06:53;2.50;99.90
15481;DHT22;7842;50.904;6.670;2024-01-15T08:09:19;2.50;99.90
15481;DHT22;7842;50.904;6.670;2024-01-15T08:11:45;2.50;99.90
15481;DHT22;7842;50.904;6.670;2024-01-15T08:14:11;2.50;99.90
15481;DHT22;7842;50.904;6.670;2024-01-15T08:16:37;2.50;99.90
15481;DHT22;7842;50.904;6.670;2024-01-15T08:19:03;2.50;99.90
15481;DHT22;7842;50.904;6.670;2024-01-15T08:21:29;2.50;99.90
15481;DHT22;7842;50.904;6.670;2024-01-15T08:24:01;2.50;99.90
15481;DHT22;7842;50.904;6.670;2024-01-15T08:26:30;2.60;99.90
15481;DHT22;7842;50.904;6.670;2024-01-15T08:28:55;2.60;99.90
15481;DHT22;7842;50.904;6.670;2024-01-15T08:31:21;2.60;99.90
15481;DHT22;7842;50.904;6.670;2024-01-15T08:33:47;2.50;99.90
15481;DHT22;7842;50.904;6.670;2024-01-15T08:36:13;2.60;99.90
15481;DHT22;7842;50.904;6.670;2024-01-15T08:38:39;2.70;99.90
15481;DHT22;7842;50.904;6.670;2024-01-15T08:41:05;2.60;99.90
15481;DHT22;7842;50.904;6.670;2024-01-15T08:43:31;2.60;99.90
15481;DHT22;7842;50.904;6.670;2024-01-15T08:45:57;2.50;99.90
15481;DHT22;7842;50.904;6.670;2024-01-15T08:48:23;2.50;99.90
15481;DHT22;7842;50.904;6.670;2024-01-15T08:50:48;2.50;99.90
15481;DHT22;7842;50.904;6.670;2024-01-15T08:53:14;2.50;99.90
15481;DHT22;7842;50.904;6.670;2024-01-15T08:55:40;2.50;99.90
15481;DHT22;7842;50.904;6.670;2024-01-15T08:58:08;2.50;99.90
15481;DHT22;7842;50.904;6.670;2024-01-15T09:00:34;2.40;99.90
15481;DHT22;7842;50.904;6.670;2024-01-15T09:03:00;2.50;99.90
15481;DHT22;7842;50.904;6.670;2024-01-15T09:05:26;2.50;99.90
15481;DHT22;7842;50.904;6.670;2024-01-15T09:07:51;2.50;99.90
15481;DHT22;7842;50.904;6.670;2024-01-15T09:10:18;2.60;99.90
15481;DHT22;7842;50.904;6.670;2024-01-15T09:12:44;2.40;99.90
15481;DHT22;7842;50.904;6.670;2024-01-15T09:15:10;2.40;99.90
15481;DHT22;7842;50.904;6.670;2024-01-15T09:17:36;2.30;99.90
15481;DHT22;7842;50.904;6.670;2024-01-15T09:20:02;2.40;99.90
15481;DHT22;7842;50.904;6.670;2024-01-15T09:22:30;2.30;99.90
15481;DHT22;7842;50.904;6.670;2024-01-15T09:24:55;2.30;99.90
15481;DHT22;7842;50.904;6.670;2024-01-15T09:27:21;2.30;99.90
15481;DHT22;7842;50.904;6.670;2024-01-15T09:29:47;2.10;99.90
15481;DHT22;7842;50.904;6.670;2024-01-15T09:32:12;2.10;99.90
15481;DHT22;7842;50.904;6.670;2024-01-15T09:34:38;2.00;99.90
15481;DHT22;7842;50.904;6.670;2024-01-15T09:37:04;1.90;99.90
15481;DHT22;7842;50.904;6.670;2024-01-15T09:39:30;2.00;99.90
15481;DHT22;7842;50.904;6.670;2024-01-15T09:41:57;1.90;99.90
15481;DHT22;7842;50.904;6.670;2024-01-15T09:44:23;1.90;99.90
15481;DHT22;7842;50.904;6.670;2024-01-15T09:46:50;1.90;99.90
15481;DHT22;7842;50.904;6.670;2024-01-15T09:49:17;2.00;99.90
15481;DHT22;7842;50.904;6.670;2024-01-15T09:51:44;2.00;99.90
15481;DHT22;7842;50.904;6.670;2024-01-15T09:54:10;2.00;99.90
15481;DHT22;7842;50.904;6.670;2024-01-15T09:56:36;2.00;99.90
15481;DHT22;7842;50.904;6.670;2024-01-15T09:59:02;2.10;99.90
15481;DHT22;7842;50.904;6.670;2024-01-15T10:01:31;2.10;99.90
15481;DHT22;7842;50.904;6.670;2024-01-15T10:03:58;2.10;99.90
15481;DHT22;7842;50.904;6.670;2024-01-15T10:06:26;2.10;99.90
15481;DHT22;7842;50.904;6.670;2024-01-15T10:08:56;2.00;99.90
15481;DHT22;7842;50.904;6.670;2024-01-15T10:11:23;2.00;99.90
15481;DHT22;7842;50.904;6.670;2024-01-15T10:13:49;1.90;99.90
15481;DHT22;7842;50.904;6.670;2024-01-15T10:16:21;1.90;99.90
15481;DHT22;7842;50.904;6.670;2024-01-15T10:18:48;1.80;99.90
15481;DHT22;7842;50.904;6.670;2024-01-15T10:21:14;1.80;99.90
15481;DHT22;7842;50.904;6.670;2024-01-15T10:23:39;1.80;99.90
15481;DHT22;7842;50.904;6.670;2024-01-15T10:26:05;1.90;99.90
15481;DHT22;7842;50.904;6.670;2024-01-15T10:28:31;1.80;99.90
15481;DHT22;7842;50.904;6.670;2024-01-15T10:30:58;1.90;99.90
15481;DHT22;7842;50.904;6.670;2024-01-15T10:33:25;1.90;99.90
15481;DHT22;7842;50.904;6.670;2024-01-15T10:35:57;1.90;99.90
15481;DHT22;7842;50.904;6.670;2024-01-15T10:38:24;1.80;99.90
15481;DHT22;7842;50.904;6.670;2024-01-15T10:40:57;1.80;99.90
15481;DHT22;7842;50.904;6.670;2024-01-15T10:43:23;1.70;99.90
15481;DHT22;7842;50.904;6.670;2024-01-15T10:45:50;1.70;99.90
15481;DHT22;7842;50.904;6.670;2024-01-15T10:48:18;1.70;99.90
15481;DHT22;7842;50.904;6.670;2024-01-15T10:50:46;1.70;99.90
15481;DHT22;7842;50.904;6.670;2024-01-15T10:53:14;1.60;99.90
15481;DHT22;7842;50.904;6.670;2024-01-15T10:55:41;1.60;99.90
15481;DHT22;7842;50.904;6.670;2024-01-15T10:58:08;1.60;99.90
15481;DHT22;7842;50.904;6.670;2024-01-15T11:00:37;1.60;99.90
15481;DHT22;7842;50.904;6.670;2024-01-15T11:03:06;1.70;99.90
15481;DHT22;7842;50.904;6.670;2024-01-15T11:05:41;1.70;99.90
15481;DHT22;7842;50.904;6.670;2024-01-15T11:08:08;1.60;99.90
15481;DHT22;7842;50.904;6.670;2024-01-15T11:10:47;1.60;99.90
15481;DHT22;7842;50.904;6.670;2024-01-15T11:16:08;1.50;99.90
15481;DHT22;7842;50.904;6.670;2024-01-15T11:18:42;1.60;99.90
15481;DHT22;7842;50.904;6.670;2024-01-15T11:23:55;1.60;99.90
15481;DHT22;7842;50.904;6.670;2024-01-15T11:29:09;1.60;99.90
15481;DHT22;7842;50.904;6.670;2024-01-15T11:34:09;1.60;99.90
15481;DHT22;7842;50.904;6.670;2024-01-15T11:42:00;1.60;99.90
15481;DHT22;7842;50.904;6.670;2024-01-15T11:44:26;1.60;99.90
15481;DHT22;7842;50.904;6.670;2024-01-15T11:47:00;1.70;99.90
15481;DHT22;7842;50.904;6.670;2024-01-15T11:52:19;1.70;99.90
15481;DHT22;7842;50.904;6.670;2024-01-15T11:57:25;1.80;99.90
15481;DHT22;7842;50.904;6.670;2024-01-15T11:59:53;1.90;99.90
15481;DHT22;7842;50.904;6.670;2024-01-15T12:02:19;1.90;99.90
15481;DHT22;7842;50.904;6.670;2024-01-15T12:04:44;2.00;99.90
15481;DHT22;7842;50.904;6.670;2024-01-15T12:07:10;2.10;99.90
15481;DHT22;7842;50.904;6.670;2024-01-15T12:09:43;2.10;99.90
15481;DHT22;7842;50.904;6.670;2024-01-15T12:12:16;2.20;99.90
15481;DHT22;7842;50.904;6.670;2024-01-15T12:14:44;2.30;99.90
15481;DHT22;7842;50.904;6.670;2024-01-15T12:17:10;2.40;99.90
15481;DHT22;7842;50.904;6.670;2024-01-15T12:19:36;2.40;99.90
15481;DHT22;7842;50.904;6.670;2024-01-15T12:22:02;2.40;99.90
15481;DHT22;7842;50.904;6.670;2024-01-15T12:24:28;2.40;99.90
15481;DHT22;7842;50.904;6.670;2024-01-15T12:26:54;2.40;99.90
15481;DHT22;7842;50.904;6.670;2024-01-15T12:29:19;2.50;99.90
15481;DHT22;7842;50.904;6.670;2024-01-15T12:31:49;2.50;99.90
15481;DHT22;7842;50.904;6.670;2024-01-15T12:34:15;2.50;99.90
15481;DHT22;7842;50.904;6.670;2024-01-15T12:36:41;2.50;99.90
15481;DHT22;7842;50.904;6.670;2024-01-15T12:39:11;2.50;99.90
15481;DHT22;7842;50.904;6.670;2024-01-15T12:41:38;2.50;99.90
15481;DHT22;7842;50.904;6.670;2024-01-15T12:44:04;2.60;99.90
15481;DHT22;7842;50.904;6.670;2024-01-15T12:46:30;2.60;99.90
15481;DHT22;7842;50.904;6.670;2024-01-15T12:48:57;2.60;99.90
15481;DHT22;7842;50.904;6.670;2024-01-15T12:51:26;2.70;99.90
15481;DHT22;7842;50.904;6.670;2024-01-15T12:53:52;2.70;99.90
15481;DHT22;7842;50.904;6.670;2024-01-15T12:56:18;2.70;99.90
15481;DHT22;7842;50.904;6.670;2024-01-15T12:58:44;2.70;99.90
15481;DHT22;7842;50.904;6.670;2024-01-15T13:01:09;2.80;99.90
15481;DHT22;7842;50.904;6.670;2024-01-15T13:03:36;2.90;99.90
15481;DHT22;7842;50.904;6.670;2024-01-15T13:06:01;2.90;99.90
15481;DHT22;7842;50.904;6.670;2024-01-15T13:08:27;2.80;99.90
15481;DHT22;7842;50.904;6.670;2024-01-15T13:10:55;2.90;99.90
15481;DHT22;7842;50.904;6.670;2024-01-15T13:13:22;2.90;99.90
15481;DHT22;7842;50.904;6.670;2024-01-15T13:15:48;2.90;99.90
15481;DHT22;7842;50.904;6.670;2024-01-15T13:18:14;2.90;99.90
15481;DHT22;7842;50.904;6.670;2024-01-15T13:20:40;2.90;99.90
15481;DHT22;7842;50.904;6.670;2024-01-15T13:23:05;2.80;99.90
15481;DHT22;7842;50.904;6.670;2024-01-15T13:25:31;2.70;99.90
15481;DHT22;7842;50.904;6.670;2024-01-15T13:27:59;2.70;99.90
15481;DHT22;7842;50.904;6.670;2024-01-15T13:30:24;2.60;99.90
15481;DHT22;7842;50.904;6.670;2024-01-15T13:32:50;2.60;99.90
15481;DHT22;7842;50.904;6.670;2024-01-15T13:35:16;2.70;99.90
15481;DHT22;7842;50.904;6.670;2024-01-15T13:37:42;2.70;99.90
15481;DHT22;7842;50.904;6.670;2024-01-15T13:40:08;2.70;99.90
15481;DHT22;7842;50.904;6.670;2024-01-15T13:42:35;2.80;99.90
15481;DHT22;7842;50.904;6.670;2024-01-15T13:45:05;2.70;99.90
15481;DHT22;7842;50.904;6.670;2024-01-15T13:47:31;2.70;99.90
15481;DHT22;7842;50.904;6.670;2024-01-15T13:49:57;2.60;99.90
15481;DHT22;7842;50.904;6.670;2024-01-15T13:52:23;2.60;99.90
15481;DHT22;7842;50.904;6.670;2024-01-15T13:54:49;2.50;99.90
15481;DHT22;7842;50.904;6.670;2024-01-15T13:57:15;2.50;99.90
15481;DHT22;7842;50.904;6.670;2024-01-15T13:59:41;2.50;99.90
15481;DHT22;7842;50.904;6.670;2024-01-15T14:02:07;2.50;99.90
15481;DHT22;7842;50.904;6.670;2024-01-15T14:04:33;2.50;99.90
15481;DHT22;7842;50.904;6.670;2024-01-15T14:06:58;2.50;99.90
15481;DHT22;7842;50.904;6.670;2024-01-15T14:09:24;2.50;99.90
15481;DHT22;7842;50.904;6.670;2024-01-15T14:11:51;2.50;99.90
15481;DHT22;7842;50.904;6.670;2024-01-15T14:14:17;2.50;99.90
15481;DHT22;7842;50.904;6.670;2024-01-15T14:16:43;2.50;99.90
15481;DHT22;7842;50.904;6.670;2024-01-15T14:19:08;2.40;99.90
15481;DHT22;7842;50.904;6.670;2024-01-15T14:21:35;2.40;99.90
15481;DHT22;7842;50.904;6.670;2024-01-15T14:24:01;2.30;99.90
15481;DHT22;7842;50.904;6.670;2024-01-15T14:26:27;2.30;99.90
15481;DHT22;7842;50.904;6.670;2024-01-15T14:28:53;2.30;99.90
15481;DHT22;7842;50.904;6.670;2024-01-15T14:31:20;2.30;99.90
15481;DHT22;7842;50.904;6.670;2024-01-15T14:33:46;2.20;99.90
15481;DHT22;7842;50.904;6.670;2024-01-15T14:36:11;2.10;99.90
15481;DHT22;7842;50.904;6.670;2024-01-15T14:38:37;2.20;99.90
15481;DHT22;7842;50.904;6.670;2024-01-15T14:41:03;2.10;99.90
15481;DHT22;7842;50.904;6.670;2024-01-15T14:43:29;2.10;99.90
15481;DHT22;7842;50.904;6.670;2024-01-15T14:45:55;2.00;99.90
15481;DHT22;7842;50.904;6.670;2024-01-15T14:48:22;2.10;99.90
15481;DHT22;7842;50.904;6.670;2024-01-15T14:50:47;2.10;99.90
15481;DHT22;7842;50.904;6.670;2024-01-15T14:53:13;2.10;99.90
15481;DHT22;7842;50.904;6.670;2024-01-15T14:55:39;2.20;99.90
15481;DHT22;7842;50.904;6.670;2024-01-15T14:58:05;2.30;99.90
15481;DHT22;7842;50.904;6.670;2024-01-15T15:00:30;2.20;99.90
15481;DHT22;7842;50.904;6.670;2024-01-15T15:02:56;2.10;99.90
15481;DHT22;7842;50.904;6.670;2024-01-15T15:05:22;2.00;99.90
15481;DHT22;7842;50.904;6.670;2024-01-15T15:07:48;2.00;99.90
15481;DHT22;7842;50.904;6.670;2024-01-15T15:10:13;2.00;99.90
15481;DHT22;7842;50.904;6.670;2024-01-15T15:12:40;2.00;99.90
15481;DHT22;7842;50.904;6.670;2024-01-15T15:15:06;2.00;99.90
15481;DHT22;7842;50.904;6.670;2024-01-15T15:17:32;2.10;99.90
15481;DHT22;7842;50.904;6.670;2024-01-15T15:19:58;2.00;99.90
15481;DHT22;7842;50.904;6.670;2024-01-15T15:22:24;2.00;99.90
15481;DHT22;7842;50.904;6.670;2024-01-15T15:24:49;1.90;99.90
15481;DHT22;7842;50.904;6.670;2024-01-15T15:27:15;1.80;99.90
15481;DHT22;7842;50.904;6.670;2024-01-15T15:29:41;1.80;99.90
15481;DHT22;7842;50.904;6.670;2024-01-15T15:32:06;1.90;99.90
15481;DHT22;7842;50.904;6.670;2024-01-15T15:34:32;1.90;99.90
15481;DHT22;7842;50.904;6.670;2024-01-15T15:36:58;1.80;99.90
15481;DHT22;7842;50.904;6.670;2024-01-15T15:39:23;1.80;99.90
15481;DHT22;7842;50.904;6.670;2024-01-15T15:41:50;1.80;99.90
15481;DHT22;7842;50.904;6.670;2024-01-15T15:44:16;1.80;99.90
15481;DHT22;7842;50.904;6.670;2024-01-15T15:46:42;1.80;99.90
15481;DHT22;7842;50.904;6.670;2024-01-15T15:49:08;1.80;99.90
15481;DHT22;7842;50.904;6.670;2024-01-15T15:51:34;1.80;99.90
15481;DHT22;7842;50.904;6.670;2024-01-15T15:54:01;1.80;99.90
15481;DHT22;7842;50.904;6.670;2024-01-15T15:56:27;1.80;99.90
15481;DHT22;7842;50.904;6.670;2024-01-15T15:58:53;1.70;99.90
15481;DHT22;7842;50.904;6.670;2024-01-15T16:01:18;1.70;99.90
15481;DHT22;7842;50.904;6.670;2024-01-15T16:03:44;1.80;99.90
15481;DHT22;7842;50.904;6.670;2024-01-15T16:06:10;1.80;99.90
15481;DHT22;7842;50.904;6.670;2024-01-15T16:08:36;1.80;99.90
15481;DHT22;7842;50.904;6.670;2024-01-15T16:11:02;1.80;99.90
15481;DHT22;7842;50.904;6.670;2024-01-15T16:13:27;1.80;99.90
15481;DHT22;7842;50.904;6.670;2024-01-15T16:15:53;1.80;99.90
15481;DHT22;7842;50.904;6.670;2024-01-15T16:18:19;1.80;99.90